sensor_id;sensor_type;location;lat;lon;timestamp;pressure;altitude;pressure_sealevel;temperature;humidity
57900;BME280;60605;53.716;19.940;2022-11-21T00:03:27;99503.15;;;-1.92;100.00
57900;BME280;60605;53.716;19.940;2022-11-21T00:08:30;99497.64;;;-1.91;100.00
57900;BME280;60605;53.716;19.940;2022-11-21T00:13:34;99488.55;;;-1.91;100.00
57900;BME280;60605;53.716;19.940;2022-11-21T00:18:37;99487.48;;;-1.94;100.00
57900;BME280;60605;53.716;19.940;2022-11-21T00:23:42;99484.46;;;-1.99;100.00
57900;BME280;60605;53.716;19.940;2022-11-21T00:28:45;99480.45;;;-2.02;100.00
57900;BME280;60605;53.716;19.940;2022-11-21T00:33:49;99480.05;;;-2.04;100.00
57900;BME280;60605;53.716;19.940;2022-11-21T00:38:52;99479.40;;;-2.07;100.00
57900;BME280;60605;53.716;19.940;2022-11-21T00:43:55;99484.73;;;-2.17;100.00
57900;BME280;60605;53.716;19.940;2022-11-21T00:48:59;99491.29;;;-2.30;100.00
57900;BME280;60605;53.716;19.940;2022-11-21T00:54:02;99500.11;;;-2.40;100.00
57900;BME280;60605;53.716;19.940;2022-11-21T00:59:05;99494.02;;;-2.49;100.00
57900;BME280;60605;53.716;19.940;2022-11-21T01:04:08;99497.31;;;-2.60;100.00
57900;BME280;60605;53.716;19.940;2022-11-21T01:09:11;99497.75;;;-2.73;100.00
57900;BME280;60605;53.716;19.940;2022-11-21T01:14:14;99500.90;;;-2.89;100.00
57900;BME280;60605;53.716;19.940;2022-11-21T01:19:18;99501.76;;;-3.03;100.00
57900;BME280;60605;53.716;19.940;2022-11-21T01:24:21;99505.31;;;-3.19;100.00
57900;BME280;60605;53.716;19.940;2022-11-21T01:29:26;99506.56;;;-3.32;100.00
57900;BME280;60605;53.716;19.940;2022-11-21T01:34:29;99515.16;;;-3.42;100.00
57900;BME280;60605;53.716;19.940;2022-11-21T01:39:32;99522.36;;;-3.50;100.00
57900;BME280;60605;53.716;19.940;2022-11-21T01:44:48;99530.77;;;-3.53;100.00
57900;BME280;60605;53.716;19.940;2022-11-21T01:49:52;99519.84;;;-3.48;100.00
57900;BME280;60605;53.716;19.940;2022-11-21T02:05:04;99508.65;;;-3.57;100.00
57900;BME280;60605;53.716;19.940;2022-11-21T02:10:09;99500.45;;;-3.67;100.00
57900;BME280;60605;53.716;19.940;2022-11-21T02:15:15;99491.59;;;-3.77;100.00
57900;BME280;60605;53.716;19.940;2022-11-21T02:20:24;99494.17;;;-3.86;100.00
57900;BME280;60605;53.716;19.940;2022-11-21T02:25:29;99502.42;;;-4.00;100.00
57900;BME280;60605;53.716;19.940;2022-11-21T02:30:35;99502.60;;;-4.10;100.00
57900;BME280;60605;53.716;19.940;2022-11-21T02:35:40;99511.19;;;-4.07;100.00
57900;BME280;60605;53.716;19.940;2022-11-21T02:40:52;99508.83;;;-3.93;100.00
57900;BME280;60605;53.716;19.940;2022-11-21T02:45:57;99509.27;;;-3.75;100.00
57900;BME280;60605;53.716;19.940;2022-11-21T02:51:01;99508.58;;;-3.66;100.00
57900;BME280;60605;53.716;19.940;2022-11-21T02:56:04;99502.79;;;-3.65;100.00
57900;BME280;60605;53.716;19.940;2022-11-21T03:01:07;99501.30;;;-3.70;100.00
57900;BME280;60605;53.716;19.940;2022-11-21T03:06:11;99503.27;;;-3.77;100.00
57900;BME280;60605;53.716;19.940;2022-11-21T03:11:14;99511.22;;;-3.85;100.00
57900;BME280;60605;53.716;19.940;2022-11-21T03:16:17;99511.90;;;-3.91;100.00
57900;BME280;60605;53.716;19.940;2022-11-21T03:21:20;99510.05;;;-3.93;100.00
57900;BME280;60605;53.716;19.940;2022-11-21T03:26:24;99514.04;;;-3.89;100.00
57900;BME280;60605;53.716;19.940;2022-11-21T03:31:28;99515.24;;;-3.82;100.00
57900;BME280;60605;53.716;19.940;2022-11-21T03:36:31;99521.84;;;-3.72;100.00
57900;BME280;60605;53.716;19.940;2022-11-21T03:41:35;99535.02;;;-3.64;100.00
57900;BME280;60605;53.716;19.940;2022-11-21T03:46:41;99541.15;;;-3.55;100.00
57900;BME280;60605;53.716;19.940;2022-11-21T03:51:44;99539.47;;;-3.46;100.00
57900;BME280;60605;53.716;19.940;2022-11-21T03:56:47;99531.75;;;-3.39;100.00
57900;BME280;60605;53.716;19.940;2022-11-21T04:01:50;99532.77;;;-3.36;100.00
57900;BME280;60605;53.716;19.940;2022-11-21T04:06:54;99533.02;;;-3.34;100.00
57900;BME280;60605;53.716;19.940;2022-11-21T04:11:57;99531.18;;;-3.35;100.00
57900;BME280;60605;53.716;19.940;2022-11-21T04:17:00;99521.60;;;-3.42;100.00
57900;BME280;60605;53.716;19.940;2022-11-21T04:22:04;99522.67;;;-3.52;100.00
57900;BME280;60605;53.716;19.940;2022-11-21T04:27:07;99517.29;;;-3.59;100.00
57900;BME280;60605;53.716;19.940;2022-11-21T04:32:11;99512.64;;;-3.67;100.00
57900;BME280;60605;53.716;19.940;2022-11-21T04:37:14;99516.30;;;-3.73;100.00
57900;BME280;60605;53.716;19.940;2022-11-21T04:42:17;99516.89;;;-3.77;100.00
57900;BME280;60605;53.716;19.940;2022-11-21T04:47:20;99515.09;;;-3.79;100.00
57900;BME280;60605;53.716;19.940;2022-11-21T04:52:23;99517.91;;;-3.83;100.00
57900;BME280;60605;53.716;19.940;2022-11-21T04:57:27;99525.68;;;-3.88;100.00
57900;BME280;60605;53.716;19.940;2022-11-21T05:02:31;99534.73;;;-3.88;100.00
57900;BME280;60605;53.716;19.940;2022-11-21T05:07:35;99535.34;;;-3.86;100.00
57900;BME280;60605;53.716;19.940;2022-11-21T05:12:38;99533.21;;;-3.86;100.00
57900;BME280;60605;53.716;19.940;2022-11-21T05:18:00;99527.02;;;-3.84;100.00
57900;BME280;60605;53.716;19.940;2022-11-21T05:23:04;99526.05;;;-3.82;100.00
57900;BME280;60605;53.716;19.940;2022-11-21T05:28:08;99526.45;;;-3.80;100.00
57900;BME280;60605;53.716;19.940;2022-11-21T05:33:11;99524.03;;;-3.77;100.00
57900;BME280;60605;53.716;19.940;2022-11-21T05:38:14;99524.81;;;-3.72;100.00
57900;BME280;60605;53.716;19.940;2022-11-21T05:43:17;99519.96;;;-3.70;100.00
57900;BME280;60605;53.716;19.940;2022-11-21T05:48:40;99512.24;;;-3.69;100.00
57900;BME280;60605;53.716;19.940;2022-11-21T05:53:43;99506.11;;;-3.69;100.00
57900;BME280;60605;53.716;19.940;2022-11-21T05:58:47;99502.70;;;-3.70;100.00
57900;BME280;60605;53.716;19.940;2022-11-21T06:03:50;99503.46;;;-3.74;100.00
57900;BME280;60605;53.716;19.940;2022-11-21T06:08:53;99491.88;;;-3.82;100.00
57900;BME280;60605;53.716;19.940;2022-11-21T06:13:56;99495.08;;;-3.86;100.00
57900;BME280;60605;53.716;19.940;2022-11-21T06:18:59;99489.36;;;-3.87;100.00
57900;BME280;60605;53.716;19.940;2022-11-21T06:24:02;99490.52;;;-3.86;100.00
57900;BME280;60605;53.716;19.940;2022-11-21T06:29:10;99491.02;;;-3.86;100.00
57900;BME280;60605;53.716;19.940;2022-11-21T06:34:13;99488.80;;;-3.86;100.00
57900;BME280;60605;53.716;19.940;2022-11-21T06:39:17;99487.70;;;-3.86;100.00
57900;BME280;60605;53.716;19.940;2022-11-21T06:44:20;99490.38;;;-3.87;100.00
57900;BME280;60605;53.716;19.940;2022-11-21T06:49:23;99496.48;;;-3.87;100.00
57900;BME280;60605;53.716;19.940;2022-11-21T06:54:26;99504.35;;;-3.81;100.00
57900;BME280;60605;53.716;19.940;2022-11-21T06:59:32;99511.29;;;-3.71;100.00
57900;BME280;60605;53.716;19.940;2022-11-21T07:04:35;99517.27;;;-3.59;100.00
57900;BME280;60605;53.716;19.940;2022-11-21T07:09:38;99511.36;;;-3.46;100.00
57900;BME280;60605;53.716;19.940;2022-11-21T07:14:42;99501.48;;;-3.35;100.00
57900;BME280;60605;53.716;19.940;2022-11-21T07:19:46;99505.95;;;-3.25;100.00
57900;BME280;60605;53.716;19.940;2022-11-21T07:24:49;99503.39;;;-3.13;100.00
57900;BME280;60605;53.716;19.940;2022-11-21T07:29:52;99498.27;;;-3.00;100.00
57900;BME280;60605;53.716;19.940;2022-11-21T07:34:56;99503.02;;;-2.92;100.00
57900;BME280;60605;53.716;19.940;2022-11-21T07:39:59;99508.45;;;-2.89;100.00
57900;BME280;60605;53.716;19.940;2022-11-21T07:45:02;99515.44;;;-2.89;100.00
57900;BME280;60605;53.716;19.940;2022-11-21T07:50:09;99526.79;;;-2.89;100.00
57900;BME280;60605;53.716;19.940;2022-11-21T07:55:13;99524.84;;;-2.89;100.00
57900;BME280;60605;53.716;19.940;2022-11-21T08:00:16;99528.76;;;-2.84;100.00
57900;BME280;60605;53.716;19.940;2022-11-21T08:05:21;99527.34;;;-2.75;100.00
57900;BME280;60605;53.716;19.940;2022-11-21T08:10:25;99529.87;;;-2.61;100.00
57900;BME280;60605;53.716;19.940;2022-11-21T08:15:29;99527.34;;;-2.51;100.00
57900;BME280;60605;53.716;19.940;2022-11-21T08:20:32;99534.38;;;-2.40;100.00
57900;BME280;60605;53.716;19.940;2022-11-21T08:25:37;99533.21;;;-2.20;100.00
57900;BME280;60605;53.716;19.940;2022-11-21T08:30:41;99534.55;;;-2.03;100.00
57900;BME280;60605;53.716;19.940;2022-11-21T08:35:45;99524.96;;;-1.86;100.00
57900;BME280;60605;53.716;19.940;2022-11-21T08:40:48;99529.30;;;-1.71;100.00
57900;BME280;60605;53.716;19.940;2022-11-21T08:46:19;99530.13;;;-1.64;100.00
57900;BME280;60605;53.716;19.940;2022-11-21T08:51:22;99533.73;;;-1.58;100.00
57900;BME280;60605;53.716;19.940;2022-11-21T08:56:26;99532.48;;;-1.46;100.00
57900;BME280;60605;53.716;19.940;2022-11-21T09:01:29;99535.31;;;-1.39;100.00
57900;BME280;60605;53.716;19.940;2022-11-21T09:06:33;99538.72;;;-1.37;99.97
57900;BME280;60605;53.716;19.940;2022-11-21T09:11:36;99532.70;;;-1.37;99.94
57900;BME280;60605;53.716;19.940;2022-11-21T09:16:40;99537.48;;;-1.34;99.85
57900;BME280;60605;53.716;19.940;2022-11-21T09:22:04;99540.26;;;-1.26;99.67
57900;BME280;60605;53.716;19.940;2022-11-21T09:27:07;99532.89;;;-1.09;99.57
57900;BME280;60605;53.716;19.940;2022-11-21T09:32:10;99532.23;;;-1.02;97.93
57900;BME280;60605;53.716;19.940;2022-11-21T09:37:13;99521.34;;;-0.88;98.87
57900;BME280;60605;53.716;19.940;2022-11-21T09:47:50;99509.72;;;-0.61;96.59
57900;BME280;60605;53.716;19.940;2022-11-21T09:53:01;99515.10;;;-0.60;96.92
57900;BME280;60605;53.716;19.940;2022-11-21T09:58:13;99513.48;;;-0.47;96.34
57900;BME280;60605;53.716;19.940;2022-11-21T10:03:20;99516.14;;;-0.37;95.71
57900;BME280;60605;53.716;19.940;2022-11-21T10:08:35;99508.67;;;-0.35;93.99
57900;BME280;60605;53.716;19.940;2022-11-21T10:14:10;99502.98;;;-0.42;94.06
57900;BME280;60605;53.716;19.940;2022-11-21T10:34:42;99490.63;;;-0.33;94.43
57900;BME280;60605;53.716;19.940;2022-11-21T10:39:48;99478.77;;;-0.37;93.74
57900;BME280;60605;53.716;19.940;2022-11-21T10:44:52;99475.92;;;-0.42;94.07
57900;BME280;60605;53.716;19.940;2022-11-21T10:50:34;99479.92;;;-0.43;94.13
57900;BME280;60605;53.716;19.940;2022-11-21T10:55:56;99479.23;;;-0.54;93.98
57900;BME280;60605;53.716;19.940;2022-11-21T11:01:01;99474.73;;;-0.65;94.26
57900;BME280;60605;53.716;19.940;2022-11-21T11:06:04;99476.34;;;-0.68;95.26
57900;BME280;60605;53.716;19.940;2022-11-21T11:11:12;99477.30;;;-0.69;95.20
57900;BME280;60605;53.716;19.940;2022-11-21T11:16:19;99474.94;;;-0.73;95.05
57900;BME280;60605;53.716;19.940;2022-11-21T11:21:29;99472.94;;;-0.75;95.09
57900;BME280;60605;53.716;19.940;2022-11-21T11:31:52;99466.20;;;-0.68;95.52
57900;BME280;60605;53.716;19.940;2022-11-21T11:48:20;99474.55;;;-0.52;95.60
57900;BME280;60605;53.716;19.940;2022-11-21T11:53:37;99473.81;;;-0.46;95.13
57900;BME280;60605;53.716;19.940;2022-11-21T12:04:10;99477.31;;;-0.39;94.95
57900;BME280;60605;53.716;19.940;2022-11-21T12:32:40;99463.83;;;-0.31;93.96
57900;BME280;60605;53.716;19.940;2022-11-21T12:37:52;99462.15;;;-0.32;93.98
57900;BME280;60605;53.716;19.940;2022-11-21T12:49:18;99461.86;;;-0.33;94.42
57900;BME280;60605;53.716;19.940;2022-11-21T13:05:26;99453.58;;;-0.25;95.28
57900;BME280;60605;53.716;19.940;2022-11-21T13:10:31;99452.27;;;-0.32;94.64
57900;BME280;60605;53.716;19.940;2022-11-21T13:15:45;99451.88;;;-0.38;94.95
57900;BME280;60605;53.716;19.940;2022-11-21T13:20:52;99452.68;;;-0.45;95.06
57900;BME280;60605;53.716;19.940;2022-11-21T13:25:55;99450.04;;;-0.50;95.55
57900;BME280;60605;53.716;19.940;2022-11-21T13:31:00;99454.48;;;-0.53;95.73
57900;BME280;60605;53.716;19.940;2022-11-21T13:36:06;99444.36;;;-0.59;95.95
57900;BME280;60605;53.716;19.940;2022-11-21T13:58:11;99439.55;;;-0.81;98.07
57900;BME280;60605;53.716;19.940;2022-11-21T14:08:36;99431.52;;;-0.92;99.54
57900;BME280;60605;53.716;19.940;2022-11-21T14:13:45;99432.31;;;-0.96;99.92
57900;BME280;60605;53.716;19.940;2022-11-21T14:18:51;99438.73;;;-0.98;100.00
57900;BME280;60605;53.716;19.940;2022-11-21T14:23:59;99437.36;;;-0.98;100.00
57900;BME280;60605;53.716;19.940;2022-11-21T14:29:23;99437.23;;;-0.98;100.00
57900;BME280;60605;53.716;19.940;2022-11-21T14:34:30;99438.42;;;-1.01;100.00
57900;BME280;60605;53.716;19.940;2022-11-21T14:39:39;99441.65;;;-1.02;100.00
57900;BME280;60605;53.716;19.940;2022-11-21T14:45:05;99436.36;;;-1.04;100.00
57900;BME280;60605;53.716;19.940;2022-11-21T14:50:25;99436.71;;;-1.04;100.00
57900;BME280;60605;53.716;19.940;2022-11-21T14:55:30;99440.87;;;-1.03;100.00
57900;BME280;60605;53.716;19.940;2022-11-21T15:00:34;99438.37;;;-1.03;100.00
57900;BME280;60605;53.716;19.940;2022-11-21T15:06:02;99432.70;;;-1.02;100.00
57900;BME280;60605;53.716;19.940;2022-11-21T15:11:09;99432.73;;;-1.02;100.00
57900;BME280;60605;53.716;19.940;2022-11-21T15:16:14;99431.73;;;-1.03;100.00
57900;BME280;60605;53.716;19.940;2022-11-21T15:21:17;99421.92;;;-1.03;100.00
57900;BME280;60605;53.716;19.940;2022-11-21T15:26:28;99420.92;;;-1.04;100.00
57900;BME280;60605;53.716;19.940;2022-11-21T15:31:35;99415.34;;;-1.04;100.00
57900;BME280;60605;53.716;19.940;2022-11-21T15:36:39;99411.56;;;-1.03;100.00
57900;BME280;60605;53.716;19.940;2022-11-21T15:41:42;99406.04;;;-1.01;100.00
57900;BME280;60605;53.716;19.940;2022-11-21T15:46:50;99400.33;;;-1.00;100.00
57900;BME280;60605;53.716;19.940;2022-11-21T15:51:54;99399.79;;;-0.99;100.00
57900;BME280;60605;53.716;19.940;2022-11-21T15:57:12;99399.88;;;-0.98;100.00
57900;BME280;60605;53.716;19.940;2022-11-21T16:02:19;99397.17;;;-0.97;100.00
57900;BME280;60605;53.716;19.940;2022-11-21T16:07:23;99396.34;;;-0.98;100.00
57900;BME280;60605;53.716;19.940;2022-11-21T16:12:28;99395.30;;;-0.98;100.00
57900;BME280;60605;53.716;19.940;2022-11-21T16:17:31;99392.73;;;-0.96;100.00
57900;BME280;60605;53.716;19.940;2022-11-21T16:22:34;99395.52;;;-0.96;100.00
57900;BME280;60605;53.716;19.940;2022-11-21T16:27:38;99395.73;;;-0.96;100.00
57900;BME280;60605;53.716;19.940;2022-11-21T16:32:41;99391.48;;;-0.96;100.00
57900;BME280;60605;53.716;19.940;2022-11-21T16:37:45;99387.13;;;-0.96;100.00
57900;BME280;60605;53.716;19.940;2022-11-21T16:42:49;99383.01;;;-0.97;100.00
57900;BME280;60605;53.716;19.940;2022-11-21T16:47:52;99380.79;;;-0.99;100.00
57900;BME280;60605;53.716;19.940;2022-11-21T16:52:55;99382.59;;;-0.99;100.00
57900;BME280;60605;53.716;19.940;2022-11-21T16:57:59;99385.25;;;-1.00;100.00
57900;BME280;60605;53.716;19.940;2022-11-21T17:03:03;99385.97;;;-1.00;100.00
57900;BME280;60605;53.716;19.940;2022-11-21T17:08:06;99387.85;;;-0.99;100.00
57900;BME280;60605;53.716;19.940;2022-11-21T17:13:11;99381.98;;;-0.98;100.00
57900;BME280;60605;53.716;19.940;2022-11-21T17:18:14;99378.91;;;-0.96;100.00
57900;BME280;60605;53.716;19.940;2022-11-21T17:23:18;99386.21;;;-0.96;100.00
57900;BME280;60605;53.716;19.940;2022-11-21T17:28:21;99389.45;;;-0.94;100.00
57900;BME280;60605;53.716;19.940;2022-11-21T17:33:24;99390.40;;;-0.93;100.00
57900;BME280;60605;53.716;19.940;2022-11-21T17:38:28;99389.06;;;-0.91;100.00
57900;BME280;60605;53.716;19.940;2022-11-21T17:43:33;99383.30;;;-0.89;100.00
57900;BME280;60605;53.716;19.940;2022-11-21T17:48:37;99382.31;;;-0.87;100.00
57900;BME280;60605;53.716;19.940;2022-11-21T17:53:43;99385.14;;;-0.85;100.00
57900;BME280;60605;53.716;19.940;2022-11-21T17:58:47;99386.36;;;-0.82;100.00
57900;BME280;60605;53.716;19.940;2022-11-21T18:09:00;99384.86;;;-0.79;100.00
57900;BME280;60605;53.716;19.940;2022-11-21T18:14:05;99381.04;;;-0.76;100.00
57900;BME280;60605;53.716;19.940;2022-11-21T18:19:12;99380.17;;;-0.74;100.00
57900;BME280;60605;53.716;19.940;2022-11-21T18:24:16;99383.40;;;-0.72;100.00
57900;BME280;60605;53.716;19.940;2022-11-21T18:29:19;99376.98;;;-0.71;100.00
57900;BME280;60605;53.716;19.940;2022-11-21T18:34:40;99369.59;;;-0.70;100.00
57900;BME280;60605;53.716;19.940;2022-11-21T18:39:45;99368.48;;;-0.70;100.00
57900;BME280;60605;53.716;19.940;2022-11-21T18:44:50;99372.70;;;-0.70;100.00
57900;BME280;60605;53.716;19.940;2022-11-21T18:49:53;99373.13;;;-0.68;100.00
57900;BME280;60605;53.716;19.940;2022-11-21T18:54:59;99372.83;;;-0.67;100.00
57900;BME280;60605;53.716;19.940;2022-11-21T19:00:04;99375.04;;;-0.66;100.00
57900;BME280;60605;53.716;19.940;2022-11-21T19:05:09;99371.20;;;-0.64;100.00
57900;BME280;60605;53.716;19.940;2022-11-21T19:10:20;99369.00;;;-0.62;100.00
57900;BME280;60605;53.716;19.940;2022-11-21T19:15:46;99371.02;;;-0.61;100.00
57900;BME280;60605;53.716;19.940;2022-11-21T19:20:52;99372.33;;;-0.60;100.00
57900;BME280;60605;53.716;19.940;2022-11-21T19:26:00;99368.84;;;-0.57;100.00
57900;BME280;60605;53.716;19.940;2022-11-21T19:31:05;99375.25;;;-0.56;100.00
57900;BME280;60605;53.716;19.940;2022-11-21T19:36:17;99382.78;;;-0.54;100.00
57900;BME280;60605;53.716;19.940;2022-11-21T19:41:22;99385.30;;;-0.52;100.00
57900;BME280;60605;53.716;19.940;2022-11-21T19:46:34;99391.65;;;-0.50;100.00
57900;BME280;60605;53.716;19.940;2022-11-21T19:51:40;99394.35;;;-0.48;100.00
57900;BME280;60605;53.716;19.940;2022-11-21T19:56:46;99395.28;;;-0.47;100.00
57900;BME280;60605;53.716;19.940;2022-11-21T20:01:50;99392.88;;;-0.45;100.00
57900;BME280;60605;53.716;19.940;2022-11-21T20:06:55;99397.30;;;-0.43;100.00
57900;BME280;60605;53.716;19.940;2022-11-21T20:11:59;99398.10;;;-0.42;100.00
57900;BME280;60605;53.716;19.940;2022-11-21T20:17:03;99397.15;;;-0.41;100.00
57900;BME280;60605;53.716;19.940;2022-11-21T20:22:07;99394.94;;;-0.39;100.00
57900;BME280;60605;53.716;19.940;2022-11-21T20:27:11;99391.88;;;-0.38;100.00
57900;BME280;60605;53.716;19.940;2022-11-21T20:32:15;99395.16;;;-0.38;100.00
57900;BME280;60605;53.716;19.940;2022-11-21T20:37:19;99396.26;;;-0.36;100.00
57900;BME280;60605;53.716;19.940;2022-11-21T20:42:23;99399.96;;;-0.33;100.00
57900;BME280;60605;53.716;19.940;2022-11-21T20:47:28;99403.52;;;-0.32;100.00
57900;BME280;60605;53.716;19.940;2022-11-21T20:52:33;99410.20;;;-0.29;100.00
57900;BME280;60605;53.716;19.940;2022-11-21T20:57:58;99412.49;;;-0.27;100.00
57900;BME280;60605;53.716;19.940;2022-11-21T21:03:03;99405.41;;;-0.26;100.00
57900;BME280;60605;53.716;19.940;2022-11-21T21:08:07;99400.85;;;-0.26;100.00
57900;BME280;60605;53.716;19.940;2022-11-21T21:13:11;99406.63;;;-0.26;100.00
57900;BME280;60605;53.716;19.940;2022-11-21T21:18:14;99409.95;;;-0.26;100.00
57900;BME280;60605;53.716;19.940;2022-11-21T21:23:18;99411.89;;;-0.26;100.00
57900;BME280;60605;53.716;19.940;2022-11-21T21:28:21;99407.90;;;-0.26;100.00
57900;BME280;60605;53.716;19.940;2022-11-21T21:33:25;99409.67;;;-0.27;100.00
57900;BME280;60605;53.716;19.940;2022-11-21T21:38:29;99409.45;;;-0.26;100.00
57900;BME280;60605;53.716;19.940;2022-11-21T21:43:34;99418.81;;;-0.25;100.00
57900;BME280;60605;53.716;19.940;2022-11-21T21:48:38;99418.54;;;-0.23;100.00
57900;BME280;60605;53.716;19.940;2022-11-21T21:53:43;99416.99;;;-0.21;100.00
57900;BME280;60605;53.716;19.940;2022-11-21T21:58:48;99411.04;;;-0.19;100.00
57900;BME280;60605;53.716;19.940;2022-11-21T22:03:56;99408.83;;;-0.17;100.00
57900;BME280;60605;53.716;19.940;2022-11-21T22:09:00;99409.77;;;-0.16;100.00
57900;BME280;60605;53.716;19.940;2022-11-21T22:14:07;99413.33;;;-0.14;100.00
57900;BME280;60605;53.716;19.940;2022-11-21T22:19:12;99407.65;;;-0.13;100.00
57900;BME280;60605;53.716;19.940;2022-11-21T22:24:16;99410.34;;;-0.12;100.00
57900;BME280;60605;53.716;19.940;2022-11-21T22:29:27;99415.70;;;-0.11;100.00
57900;BME280;60605;53.716;19.940;2022-11-21T22:34:31;99422.58;;;-0.09;100.00
57900;BME280;60605;53.716;19.940;2022-11-21T22:39:34;99427.89;;;-0.07;100.00
57900;BME280;60605;53.716;19.940;2022-11-21T22:44:37;99424.63;;;-0.05;100.00
57900;BME280;60605;53.716;19.940;2022-11-21T22:49:41;99419.25;;;-0.04;100.00
57900;BME280;60605;53.716;19.940;2022-11-21T22:54:44;99421.31;;;-0.03;100.00
57900;BME280;60605;53.716;19.940;2022-11-21T22:59:48;99413.16;;;-0.02;100.00
57900;BME280;60605;53.716;19.940;2022-11-21T23:04:51;99409.77;;;-0.01;100.00
57900;BME280;60605;53.716;19.940;2022-11-21T23:09:55;99413.19;;;0.00;100.00
57900;BME280;60605;53.716;19.940;2022-11-21T23:14:59;99413.80;;;0.02;100.00
57900;BME280;60605;53.716;19.940;2022-11-21T23:20:02;99406.66;;;0.03;100.00
57900;BME280;60605;53.716;19.940;2022-11-21T23:25:07;99394.67;;;0.04;100.00
57900;BME280;60605;53.716;19.940;2022-11-21T23:30:10;99396.70;;;0.05;100.00
57900;BME280;60605;53.716;19.940;2022-11-21T23:35:14;99397.95;;;0.08;100.00
57900;BME280;60605;53.716;19.940;2022-11-21T23:40:18;99393.65;;;0.09;100.00
57900;BME280;60605;53.716;19.940;2022-11-21T23:45:22;99397.89;;;0.11;100.00
57900;BME280;60605;53.716;19.940;2022-11-21T23:50:25;99407.57;;;0.13;100.00
57900;BME280;60605;53.716;19.940;2022-11-21T23:55:29;99416.17;;;0.15;100.00
